Time;durP1;ratioP1;P1;durP2;ratioP2;P2;SDS_P1;SDS_P2;PMS_P1;PMS_P2;Temp;Humidity;BMP_temperature;BMP_pressure;BME280_temperature;BME280_humidity;BME280_pressure;Samples;Min_cycle;Max_cycle;Signal;HPM_P1;HPM_P2
2022/09/02 00:01:47;;;;;;;;;;;19.60;43.20;;;17.52;46.69;101808.41;12244384;19;19910;-83
2022/09/02 00:05:48;;;;;;;;;;;19.60;43.10;;;17.61;46.49;101827.13;12242874;19;19956;-83
2022/09/02 00:09:50;;;;;;;;;;;19.60;43.10;;;17.72;46.85;101849.34;12246157;19;19996;-83
2022/09/02 00:13:52;;;;;;;;;;;19.60;43.10;;;17.55;46.76;101826.69;12245421;19;19914;-84
2022/09/02 00:17:53;;;;;;;;;;;19.50;43.00;;;17.76;46.82;101862.22;12244224;19;19919;-84
2022/09/02 00:21:57;;;;;;;;;;;19.50;43.10;;;17.49;46.70;101814.75;12244756;19;19970;-83
2022/09/02 00:25:58;;;;;;;;;;;19.50;43.00;;;17.63;46.71;101838.44;12243993;19;19922;-84
2022/09/02 00:30:00;;;;;;;;;;;19.50;43.00;;;17.60;47.01;101836.00;12245607;19;19980;-83
2022/09/02 00:34:03;;;;;;;;;;;19.40;43.20;;;17.56;46.75;101821.31;12244480;19;19921;-84
2022/09/02 00:38:05;;;;;;;;;;;19.40;43.20;;;17.52;46.98;101814.53;12243225;19;19923;-84
2022/09/02 00:42:07;;;;;;;;;;;19.70;43.30;;;17.64;46.93;101834.00;12244529;19;19911;-83
2022/09/02 00:46:09;;;;;;;;;;;19.50;43.30;;;17.58;46.66;101830.00;12242936;19;19923;-83
2022/09/02 00:50:13;;;;;;;;;;;19.60;43.30;;;17.64;47.09;101836.66;12244268;19;19930;-84
2022/09/02 00:54:16;;;;;;;;;;;19.50;43.40;;;17.68;47.00;101838.13;12244081;19;19919;-84
2022/09/02 00:58:21;;;;;;;;;;;19.50;43.40;;;17.47;47.04;101795.50;12242160;19;19936;-84
2022/09/02 01:02:24;;;;;;;;;;;19.50;43.40;;;17.66;46.88;101830.31;12244908;19;19970;-84
2022/09/02 01:06:27;;;;;;;;;;;19.50;43.50;;;17.65;47.17;101823.31;12243727;19;19915;-83
2022/09/02 01:10:34;;;;;;;;;;;19.50;43.50;;;17.40;47.01;101781.03;12244970;19;19934;-84
2022/09/02 01:14:36;;;;;;;;;;;19.50;43.50;;;17.79;47.08;101845.34;12241833;19;19926;-84
2022/09/02 01:18:38;;;;;;;;;;;19.60;43.50;;;17.70;47.15;101823.03;12240196;19;19915;-84
2022/09/02 01:22:41;;;;;;;;;;;19.50;43.40;;;17.70;47.13;101823.84;12236442;19;19942;-84
2022/09/02 01:26:42;;;;;;;;;;;19.60;43.40;;;17.72;47.03;101834.34;12240251;19;19918;-84
2022/09/02 01:30:48;;;;;;;;;;;19.60;43.40;;;17.67;47.10;101821.44;12241450;19;19918;-84
2022/09/02 01:34:50;;;;;;;;;;;19.50;43.40;;;17.70;46.95;101839.72;12241069;19;19971;-83
2022/09/02 01:38:52;;;;;;;;;;;19.50;43.40;;;17.37;46.81;101768.03;12239212;19;19915;-83
2022/09/02 01:42:57;;;;;;;;;;;19.80;43.50;;;17.61;47.03;101815.72;12239169;19;19915;-84
2022/09/02 01:46:58;;;;;;;;;;;19.50;43.40;;;17.65;46.87;101827.75;12238336;19;19911;-84
2022/09/02 01:51:02;;;;;;;;;;;19.50;43.40;;;17.45;47.05;101792.97;12242105;19;20333;-84
2022/09/02 01:55:04;;;;;;;;;;;19.60;43.50;;;17.39;47.12;101790.75;12240872;19;19926;-84
2022/09/02 01:59:06;;;;;;;;;;;19.40;43.40;;;17.43;46.98;101801.94;12235967;19;19927;-84
2022/09/02 02:03:08;;;;;;;;;;;19.30;43.30;;;17.37;47.19;101807.66;12251059;19;19914;-84
2022/09/02 02:07:09;;;;;;;;;;;19.30;43.30;;;17.31;47.10;101801.00;12251121;19;19919;-83
2022/09/02 02:11:21;;;;;;;;;;;19.30;43.30;;;17.28;46.98;101795.03;12253299;19;19920;-83
2022/09/02 02:15:26;;;;;;;;;;;19.20;43.30;;;17.27;47.19;101809.19;12252608;19;19923;-84
2022/09/02 02:19:28;;;;;;;;;;;19.20;43.40;;;17.19;47.27;101799.16;12249280;19;19918;-83
2022/09/02 02:23:30;;;;;;;;;;;19.20;43.40;;;17.27;47.25;101817.97;12252898;19;19926;-84
2022/09/02 02:27:31;;;;;;;;;;;19.10;43.40;;;16.60;47.29;101721.09;12251206;19;19949;-83
2022/09/02 02:31:36;;;;;;;;;;;19.10;43.40;;;17.08;47.54;101806.94;12251699;19;19925;-84
2022/09/02 02:35:39;;;;;;;;;;;19.00;43.40;;;17.01;47.08;101803.81;12249579;19;19936;-83
2022/09/02 02:39:41;;;;;;;;;;;19.00;43.50;;;16.96;47.37;101798.03;12248733;19;19926;-83
2022/09/02 02:43:43;;;;;;;;;;;18.90;43.50;;;16.95;47.44;101804.22;12250023;19;19992;-84
2022/09/02 02:47:46;;;;;;;;;;;18.90;43.60;;;16.88;47.21;101798.53;12248348;19;20320;-83
2022/09/02 02:51:48;;;;;;;;;;;18.80;43.60;;;16.83;47.46;101797.13;12250397;19;19917;-83
2022/09/02 02:55:49;;;;;;;;;;;18.80;43.60;;;16.77;47.43;101787.81;12248862;19;19931;-83
2022/09/02 02:59:51;;;;;;;;;;;19.10;43.70;;;16.68;47.54;101789.19;12247021;19;20261;-83
2022/09/02 03:03:53;;;;;;;;;;;18.70;43.60;;;16.65;47.62;101783.28;12248878;19;19923;-83
2022/09/02 03:07:57;;;;;;;;;;;18.70;43.60;;;16.75;47.49;101794.94;12247314;19;19915;-83
2022/09/02 03:11:59;;;;;;;;;;;18.60;43.60;;;16.54;47.36;101766.34;12249757;19;19944;-84
2022/09/02 03:16:02;;;;;;;;;;;18.60;43.60;;;16.71;47.53;101806.63;12254931;19;19907;-84
2022/09/02 03:20:06;;;;;;;;;;;18.60;43.60;;;16.62;47.66;101800.16;12252923;19;19943;-84
2022/09/02 03:24:12;;;;;;;;;;;18.60;43.60;;;16.57;47.50;101797.78;12256126;19;19917;-84
2022/09/02 03:28:14;;;;;;;;;;;18.60;43.60;;;16.53;47.75;101793.66;12253454;19;19915;-84
2022/09/02 03:32:16;;;;;;;;;;;18.70;43.70;;;16.42;47.53;101782.97;12254618;19;19922;-84
2022/09/02 03:36:23;;;;;;;;;;;18.50;43.70;;;16.31;47.24;101775.72;12253400;19;19907;-85
2022/09/02 03:40:26;;;;;;;;;;;18.40;43.60;;;16.24;47.50;101792.00;12255246;19;19931;-84
2022/09/02 03:44:29;;;;;;;;;;;18.40;43.50;;;16.13;47.77;101790.03;12254662;19;19918;-84
2022/09/02 03:48:31;;;;;;;;;;;18.30;43.50;;;16.03;47.84;101775.72;12252673;19;19922;-84
2022/09/02 03:52:32;;;;;;;;;;;18.20;43.50;;;15.98;47.69;101783.06;12256571;19;20742;-84
2022/09/02 03:56:34;;;;;;;;;;;18.10;43.60;;;15.99;47.86;101805.84;12254961;19;19939;-84
2022/09/02 04:00:37;;;;;;;;;;;18.00;43.60;;;15.83;47.85;101785.69;12255347;19;19914;-84
2022/09/02 04:04:39;;;;;;;;;;;17.90;43.70;;;15.74;47.82;101767.78;12254494;19;19926;-84
2022/09/02 04:08:43;;;;;;;;;;;18.10;43.90;;;15.84;47.66;101794.44;12250371;19;19933;-85
2022/09/02 04:12:44;;;;;;;;;;;18.10;43.90;;;15.89;47.83;101805.53;12252539;19;19950;-86
2022/09/02 04:16:46;;;;;;;;;;;18.10;44.00;;;15.85;48.05;101799.63;12252287;19;19922;-84
2022/09/02 04:20:48;;;;;;;;;;;17.80;44.00;;;15.23;47.84;101707.63;12252803;19;19925;-85
2022/09/02 04:24:50;;;;;;;;;;;17.70;44.00;;;15.59;47.92;101758.16;12251153;19;19914;-85
2022/09/02 04:28:53;;;;;;;;;;;17.80;44.10;;;15.78;48.09;101800.91;12250284;19;19922;-84
2022/09/02 04:32:56;;;;;;;;;;;17.80;44.10;;;15.79;47.99;101799.13;12248772;19;19919;-83
2022/09/02 04:36:58;;;;;;;;;;;17.80;44.20;;;15.82;48.16;101802.41;12247062;19;19918;-85
2022/09/02 04:41:00;;;;;;;;;;;17.70;44.30;;;15.80;47.91;101796.41;12250533;19;19917;-85
2022/09/02 04:45:03;;;;;;;;;;;17.70;44.30;;;15.82;48.08;101799.78;12249893;19;19918;-85
2022/09/02 04:49:06;;;;;;;;;;;17.80;44.30;;;15.75;48.06;101793.22;12247122;19;19926;-85
2022/09/02 04:53:09;;;;;;;;;;;17.70;44.30;;;15.82;47.96;101814.75;12250078;19;19918;-85
2022/09/02 04:57:11;;;;;;;;;;;17.70;44.10;;;15.73;48.07;101797.72;12248202;19;19933;-83
2022/09/02 05:01:16;;;;;;;;;;;17.70;44.30;;;15.60;48.13;101791.44;12249717;19;19919;-85
2022/09/02 05:05:18;;;;;;;;;;;17.80;44.30;;;15.10;47.97;101725.06;12249153;19;19922;-84
2022/09/02 05:09:20;;;;;;;;;;;17.60;44.30;;;15.41;48.28;101791.69;12246611;19;19914;-85
2022/09/02 05:13:27;;;;;;;;;;;17.80;44.50;;;15.43;48.38;101811.72;12249870;19;19907;-84
2022/09/02 05:17:31;;;;;;;;;;;17.50;44.40;;;15.27;48.34;101792.50;12248373;19;19919;-85
2022/09/02 05:21:39;;;;;;;;;;;17.70;44.50;;;14.85;48.38;101724.75;12249577;19;19927;-85
2022/09/02 05:25:41;;;;;;;;;;;17.40;45.00;;;15.40;48.29;101819.78;12246987;19;19926;-85
2022/09/02 05:29:43;;;;;;;;;;;17.30;44.70;;;15.39;48.27;101807.59;12247788;19;19978;-86
2022/09/02 05:33:46;;;;;;;;;;;17.60;45.00;;;15.46;48.42;101814.16;12246043;19;19915;-85
2022/09/02 05:37:53;;;;;;;;;;;17.70;44.90;;;15.51;48.55;101819.16;12250133;19;19991;-86
2022/09/02 05:41:54;;;;;;;;;;;17.40;44.90;;;15.31;48.46;101772.97;12247827;19;19919;-84
2022/09/02 05:45:57;;;;;;;;;;;17.50;45.10;;;15.62;48.68;101814.13;12244217;19;19931;-85
2022/09/02 05:50:00;;;;;;;;;;;17.50;45.00;;;15.74;48.60;101815.19;12236040;19;19929;-85
2022/09/02 05:54:02;;;;;;;;;;;17.60;44.80;;;15.70;48.48;101800.53;12252012;19;19925;-87
2022/09/02 05:58:04;;;;;;;;;;;17.60;45.10;;;15.93;48.81;101828.13;12246803;19;20271;-85
2022/09/02 06:02:05;;;;;;;;;;;17.60;45.10;;;15.87;48.80;101805.63;12241665;19;20337;-83
2022/09/02 06:06:07;;;;;;;;;;;18.00;45.20;;;16.07;48.62;101827.31;12246719;19;19914;-85
2022/09/02 06:10:12;;;;;;;;;;;17.80;45.50;;;16.12;48.81;101817.31;12247101;19;19923;-85
2022/09/02 06:14:18;;;;;;;;;;;17.90;45.60;;;16.18;48.77;101805.56;12249305;19;19910;-85
2022/09/02 06:18:20;;;;;;;;;;;18.00;45.50;;;16.28;48.51;101811.94;12246565;19;19927;-86
2022/09/02 06:22:24;;;;;;;;;;;18.10;45.50;;;16.24;48.75;101790.22;12249472;19;19919;-85
2022/09/02 06:26:28;;;;;;;;;;;18.20;45.50;;;16.48;48.97;101819.47;12247884;19;20572;-86
2022/09/02 06:30:31;;;;;;;;;;;18.20;46.00;;;16.28;48.82;101775.91;12247860;19;19947;-87
2022/09/02 06:34:35;;;;;;;;;;;18.30;45.20;;;16.62;48.87;101809.84;12248987;19;19923;-85
2022/09/02 06:38:39;;;;;;;;;;;18.40;45.50;;;16.78;48.83;101826.44;12246140;19;19919;-84
2022/09/02 06:42:41;;;;;;;;;;;18.50;45.30;;;16.91;49.01;101824.69;12247631;19;20385;-85
2022/09/02 06:47:00;;;;;;;;;;;18.50;45.10;;;16.99;48.95;101814.50;12246729;19;19938;-85
2022/09/02 06:51:02;;;;;;;;;;;18.70;45.20;;;17.01;48.70;101799.41;12248638;19;19922;-85
2022/09/02 06:55:05;;;;;;;;;;;18.80;45.20;;;17.07;48.78;101782.34;12247590;19;20377;-84
2022/09/02 06:59:07;;;;;;;;;;;18.90;45.50;;;17.33;48.67;101800.88;12244816;19;20353;-85
2022/09/02 07:07:54;;;;;;;;;;;19.10;45.30;;;17.67;48.77;101805.59;12240607;19;19936;-86
2022/09/02 07:11:57;;;;;;;;;;;19.30;45.60;;;17.58;48.84;101766.59;12244276;19;20341;-86
2022/09/02 07:16:00;;;;;;;;;;;19.50;45.60;;;17.97;49.03;101814.19;12235376;19;19929;-86
2022/09/02 07:20:05;;;;;;;;;;;19.60;45.60;;;18.05;48.67;101807.41;12238591;19;20296;-85
2022/09/02 07:24:12;;;;;;;;;;;20.10;45.60;;;18.22;48.78;101808.88;12248074;19;19915;-85
2022/09/02 07:28:16;;;;;;;;;;;19.90;45.50;;;18.36;48.78;101813.19;12242193;19;19919;-85
2022/09/02 07:32:20;;;;;;;;;;;20.00;45.20;;;18.48;48.85;101811.50;12244073;19;19915;-85
2022/09/02 07:36:22;;;;;;;;;;;20.10;45.70;;;18.64;48.60;101825.31;12242251;19;19935;-85
2022/09/02 07:40:24;;;;;;;;;;;20.20;45.30;;;18.22;48.69;101726.06;12240033;19;19922;-84
2022/09/02 07:44:26;;;;;;;;;;;20.40;45.40;;;18.82;48.72;101799.34;12245715;19;20340;-86
2022/09/02 07:48:29;;;;;;;;;;;20.90;45.80;;;19.10;48.61;101829.94;12241155;19;19927;-84
2022/09/02 07:52:31;;;;;;;;;;;20.60;45.40;;;18.83;48.91;101763.16;12241521;19;19965;-85
2022/09/02 07:56:32;;;;;;;;;;;20.80;45.40;;;18.91;48.67;101776.66;12243174;19;19942;-84
2022/09/02 08:00:35;;;;;;;;;;;20.90;45.20;;;19.20;48.95;101803.63;12238741;19;19919;-84
2022/09/02 08:04:43;;;;;;;;;;;21.40;45.30;;;19.21;48.82;101768.25;12245193;19;19911;-85
2022/09/02 08:08:44;;;;;;;;;;;21.10;45.20;;;19.59;48.68;101804.22;12241234;19;20605;-85
2022/09/02 08:12:46;;;;;;;;;;;21.30;45.80;;;19.87;48.60;101806.50;12242537;19;19915;-84
2022/09/02 08:16:47;;;;;;;;;;;21.70;45.40;;;20.14;48.78;101820.38;12242048;19;19952;-85
2022/09/02 08:20:49;;;;;;;;;;;21.70;45.40;;;20.42;48.72;101824.34;12245112;19;19918;-84
2022/09/02 08:24:50;;;;;;;;;;;21.90;45.50;;;20.67;48.83;101824.09;12243137;19;20234;-86
2022/09/02 08:28:52;;;;;;;;;;;22.10;45.40;;;20.85;48.80;101815.63;12243454;19;19994;-88
2022/09/02 08:32:53;;;;;;;;;;;22.30;45.30;;;21.03;48.32;101803.47;12234180;19;19943;-85
2022/09/02 08:36:56;;;;;;;;;;;22.50;45.10;;;21.28;48.63;101796.13;12235313;19;19918;-85
2022/09/02 08:40:58;;;;;;;;;;;22.80;45.20;;;21.44;48.17;101796.56;12240046;19;19918;-85
2022/09/02 08:45:11;;;;;;;;;;;23.00;45.00;;;21.58;48.16;101793.59;12239704;19;20456;-85
2022/09/02 08:49:15;;;;;;;;;;;23.20;44.90;;;;;;12237828;19;19936;-84
2022/09/02 08:53:27;;;;;;;;;;;23.30;44.80;;;21.83;48.23;101765.72;12240845;19;19991;-85
2022/09/02 08:57:29;;;;;;;;;;;23.50;44.80;;;22.12;47.90;101786.31;12239720;19;19919;-84
2022/09/02 09:01:43;;;;;;;;;;;23.80;44.60;;;22.45;48.25;101802.97;12240268;19;19939;-85
2022/09/02 09:06:02;;;;;;;;;;;23.90;44.60;;;22.61;48.14;101802.47;12241860;19;19937;-84
2022/09/02 09:10:12;;;;;;;;;;;24.10;44.60;;;22.67;47.59;101802.75;12241730;19;19933;-84
2022/09/02 09:14:33;;;;;;;;;;;24.20;43.90;;;22.77;47.80;101796.59;12252896;19;20388;-86
2022/09/02 09:18:45;;;;;;;;;;;24.40;44.20;;;22.28;47.73;101708.66;12246553;19;19939;-86
2022/09/02 09:22:48;;;;;;;;;;;24.40;43.20;;;22.53;47.49;101732.09;12253925;19;19936;-86
2022/09/02 09:26:49;;;;;;;;;;;24.50;43.70;;;22.97;47.77;101777.00;12250995;19;20337;-85
2022/09/02 09:30:51;;;;;;;;;;;24.60;43.80;;;23.01;47.26;101761.56;12252208;19;19915;-85
2022/09/02 09:34:52;;;;;;;;;;;24.70;43.60;;;23.27;47.10;101788.50;12252546;19;20012;-84
2022/09/02 09:38:54;;;;;;;;;;;24.80;43.50;;;23.32;47.00;101773.75;12249425;19;20236;-84
2022/09/02 09:43:12;;;;;;;;;;;24.90;43.80;;;23.28;46.56;101752.88;12249808;19;19933;-85
2022/09/02 09:47:22;;;;;;;;;;;25.00;43.90;;;23.41;46.98;101758.72;12249059;19;19926;-84
2022/09/02 09:51:23;;;;;;;;;;;25.10;42.80;;;23.09;46.83;101705.78;12250567;19;20006;-86
2022/09/02 09:55:25;;;;;;;;;;;25.10;43.00;;;23.51;46.75;101758.72;12251011;19;20362;-84
2022/09/02 09:59:55;;;;;;;;;;;25.20;43.20;;;23.61;46.40;101763.03;12247818;19;19942;-85
2022/09/02 10:04:11;;;;;;;;;;;25.20;42.50;;;23.47;46.35;101752.84;12252493;19;19931;-86
2022/09/02 10:08:15;;;;;;;;;;;25.20;43.10;;;23.50;46.35;101760.56;12251317;19;19944;-86
2022/09/02 10:12:29;;;;;;;;;;;25.20;42.60;;;23.41;46.49;101758.72;12244763;19;19969;-85
2022/09/02 10:16:30;;;;;;;;;;;25.10;42.50;;;23.37;46.54;101757.34;12250849;19;19990;-86
2022/09/02 10:20:34;;;;;;;;;;;25.10;43.00;;;23.28;46.60;101753.72;12249759;19;19941;-84
2022/09/02 10:24:38;;;;;;;;;;;25.00;42.60;;;23.23;46.56;101755.13;12253891;19;19982;-84
2022/09/02 10:28:48;;;;;;;;;;;25.00;42.20;;;23.28;46.69;101748.38;12249188;19;20372;-86
2022/09/02 10:33:07;;;;;;;;;;;25.00;42.30;;;23.44;46.60;101745.13;12232499;19;19923;-86
2022/09/02 10:37:22;;;;;;;;;;;25.00;43.00;;;23.20;46.14;101662.97;12254260;19;19911;-86
2022/09/02 10:41:41;;;;;;;;;;;24.80;42.60;;;23.91;46.15;101738.97;12243788;19;20389;-85
2022/09/02 10:45:49;;;;;;;;;;;25.30;42.70;;;23.82;46.25;101687.34;12255239;19;19911;-85
2022/09/02 10:50:11;;;;;;;;;;;25.50;42.80;;;24.31;45.65;101741.28;12254919;19;19939;-85
2022/09/02 10:54:23;;;;;;;;;;;25.70;42.70;;;24.27;45.54;101743.41;12252726;19;19919;-85
2022/09/02 10:58:44;;;;;;;;;;;25.80;39.30;;;24.10;45.99;101722.88;12248812;19;20357;-86
2022/09/02 11:02:58;;;;;;;;;;;25.80;41.90;;;24.16;45.60;101734.78;12246743;19;19919;-84
2022/09/02 11:07:01;;;;;;;;;;;25.80;42.10;;;24.17;45.45;101733.78;12247832;19;20325;-85
2022/09/02 11:11:05;;;;;;;;;;;25.80;41.80;;;23.82;45.54;101684.69;12246724;19;19919;-85
2022/09/02 11:15:31;;;;;;;;;;;25.90;41.60;;;23.94;45.71;101718.16;12245206;19;20008;-85
2022/09/02 11:19:48;;;;;;;;;;;25.80;41.10;;;23.57;45.10;101659.47;12238113;19;19935;-86
2022/09/02 11:23:58;;;;;;;;;;;25.70;42.00;;;23.92;45.08;101717.47;12248766;19;20278;-84
2022/09/02 11:28:37;;;;;;;;;;;25.60;40.90;;;23.72;45.05;101698.06;12236134;19;20264;-85
2022/09/02 11:32:53;;;;;;;;;;;25.60;41.50;;;23.79;45.51;101720.50;12247317;19;20332;-85
2022/09/02 11:36:54;;;;;;;;;;;25.50;41.30;;;23.62;45.03;101702.53;12247897;19;19951;-86
2022/09/02 11:41:19;;;;;;;;;;;25.40;41.20;;;23.59;45.25;101713.50;12249867;19;19947;-85
2022/09/02 11:45:50;;;;;;;;;;;25.40;40.80;;;23.56;45.53;101711.13;12245155;19;19974;-86
2022/09/02 11:50:19;;;;;;;;;;;25.30;40.70;;;23.42;45.64;101686.63;12248270;19;19918;-85
2022/09/02 11:54:22;;;;;;;;;;;25.20;40.80;;;23.57;45.39;101710.13;12246823;19;19936;-85
2022/09/02 11:58:35;;;;;;;;;;;25.20;41.10;;;23.66;45.35;101708.44;12241923;19;20658;-84
2022/09/02 12:03:04;;;;;;;;;;;25.20;41.20;;;23.57;45.43;101683.47;12243628;19;19910;-85
2022/09/02 12:07:06;;;;;;;;;;;25.20;41.30;;;23.77;45.38;101706.47;12244410;19;19982;-84
2022/09/02 12:11:10;;;;;;;;;;;25.30;40.90;;;23.44;45.12;101633.16;12243835;19;19934;-85
2022/09/02 12:15:16;;;;;;;;;;;25.40;40.90;;;23.80;44.81;101662.63;12243422;19;20007;-85
2022/09/02 12:19:26;;;;;;;;;;;25.40;40.80;;;23.90;45.20;101671.44;12240625;19;20350;-86
2022/09/02 12:23:50;;;;;;;;;;;25.60;40.90;;;24.02;45.16;101674.72;12242981;19;19931;-85
2022/09/02 12:28:14;;;;;;;;;;;25.50;40.70;;;23.98;44.96;101660.00;12242224;19;19918;-86
2022/09/02 12:32:50;;;;;;;;;;;25.60;40.60;;;24.12;44.79;101667.50;12243341;19;20269;-86
2022/09/02 12:36:56;;;;;;;;;;;25.60;40.60;;;23.84;45.04;101618.66;12240278;19;20383;-85
2022/09/02 12:41:13;;;;;;;;;;;25.70;40.40;;;24.14;45.02;101654.88;12242401;19;19923;-86
2022/09/02 12:45:30;;;;;;;;;;;25.70;40.70;;;24.21;44.81;101647.91;12238267;19;19927;-87
2022/09/02 12:50:02;;;;;;;;;;;25.80;40.60;;;24.25;44.93;101646.63;12241670;19;19926;-85
2022/09/02 12:54:05;;;;;;;;;;;25.80;40.40;;;24.26;44.49;101636.78;12240642;19;19923;-85
2022/09/02 12:58:13;;;;;;;;;;;25.90;40.20;;;24.33;44.78;101642.34;12239429;19;19923;-86
2022/09/02 13:02:21;;;;;;;;;;;25.90;40.70;;;24.40;44.72;101635.41;12240634;19;19947;-85
2022/09/02 13:06:44;;;;;;;;;;;25.90;40.30;;;24.43;44.62;101638.59;12240882;19;19919;-85
2022/09/02 13:11:23;;;;;;;;;;;26.00;40.80;;;24.44;44.29;101631.50;12241125;19;19919;-86
2022/09/02 13:15:43;;;;;;;;;;;26.00;40.10;;;24.42;44.58;101628.94;12240124;19;19947;-85
2022/09/02 13:20:06;;;;;;;;;;;26.00;40.20;;;24.37;44.40;101631.22;12241543;19;20603;-85
2022/09/02 13:24:39;;;;;;;;;;;26.00;40.20;;;24.34;44.15;101618.19;12241135;19;20385;-85
2022/09/02 13:29:23;;;;;;;;;;;26.00;40.10;;;24.21;44.40;101586.53;12238922;19;20269;-86
2022/09/02 13:33:25;;;;;;;;;;;25.90;40.00;;;24.31;44.54;101591.78;12240929;19;19930;-85
2022/09/02 13:37:29;;;;;;;;;;;26.00;39.50;;;24.54;43.99;101612.69;12237138;19;19914;-85
2022/09/02 13:41:31;;;;;;;;;;;26.00;40.10;;;24.65;44.07;101609.78;12242699;19;19926;-85
2022/09/02 13:45:34;;;;;;;;;;;26.10;39.60;;;24.75;43.76;101604.34;12238602;19;19930;-84
2022/09/02 13:49:39;;;;;;;;;;;26.20;40.70;;;24.50;43.58;101538.22;12239879;19;20338;-86
2022/09/02 13:53:46;;;;;;;;;;;26.20;39.30;;;24.88;43.95;101583.41;12239891;19;19918;-86
2022/09/02 13:57:58;;;;;;;;;;;26.30;39.10;;;24.91;43.42;101564.38;12242940;19;19951;-86
2022/09/02 14:02:22;;;;;;;;;;;26.40;40.80;;;25.01;43.14;101572.28;12253923;19;19922;-87
2022/09/02 14:06:36;;;;;;;;;;;26.50;40.20;;;25.11;43.39;101581.00;12250037;19;19922;-86
2022/09/02 14:10:38;;;;;;;;;;;26.60;40.40;;;25.07;43.51;101569.81;12251165;19;20024;-86
2022/09/02 14:14:40;;;;;;;;;;;26.60;39.90;;;25.11;43.06;101578.34;12250900;19;20401;-86
2022/09/02 14:19:27;;;;;;;;;;;26.60;38.70;;;25.14;43.00;101568.19;12246920;19;20377;-85
2022/09/02 14:23:34;;;;;;;;;;;26.60;38.70;;;24.65;43.11;101493.06;12248941;19;20517;-86
2022/09/02 14:27:36;;;;;;;;;;;26.70;39.30;;;25.14;43.18;101572.66;12249497;19;19915;-86
2022/09/02 14:31:37;;;;;;;;;;;26.70;38.60;;;25.10;42.75;101556.13;12250492;19;20579;-86
2022/09/02 14:35:39;;;;;;;;;;;26.70;38.90;;;25.14;42.49;101567.31;12250650;19;19919;-86
2022/09/02 14:39:59;;;;;;;;;;;26.70;39.20;;;25.24;42.94;101567.25;12247172;19;19910;-86
2022/09/02 14:44:22;;;;;;;;;;;26.70;38.90;;;25.26;42.38;101574.09;12252690;19;20660;-86
2022/09/02 14:48:25;;;;;;;;;;;26.70;37.10;;;25.01;42.21;101538.38;12247344;19;20353;-86
2022/09/02 14:52:32;;;;;;;;;;;26.70;38.80;;;25.07;42.23;101556.44;12252069;19;19919;-86
2022/09/02 14:56:52;;;;;;;;;;;26.70;38.20;;;25.09;42.01;101570.50;12250761;19;19918;-86
2022/09/02 15:00:56;;;;;;;;;;;26.70;39.00;;;24.89;41.96;101553.84;12248096;19;19982;-85
2022/09/02 15:05:00;;;;;;;;;;;26.70;38.20;;;24.75;42.50;101556.25;12249657;19;19927;-85
2022/09/02 15:09:02;;;;;;;;;;;26.50;38.00;;;24.62;42.10;101548.66;12247058;19;19923;-86
2022/09/02 15:13:04;;;;;;;;;;;26.40;38.00;;;24.61;42.47;101550.50;12250522;19;19914;-86
2022/09/02 15:17:07;;;;;;;;;;;26.40;38.00;;;24.44;42.54;101535.38;12244922;19;19921;-86
2022/09/02 15:21:09;;;;;;;;;;;26.20;38.10;;;24.48;42.13;101550.06;12249798;19;20366;-86
2022/09/02 15:25:10;;;;;;;;;;;26.20;38.10;;;24.47;42.54;101559.09;12249857;19;19934;-85
2022/09/02 15:29:12;;;;;;;;;;;26.10;38.30;;;24.39;42.48;101545.63;12249963;19;20619;-86
2022/09/02 15:33:14;;;;;;;;;;;26.10;38.20;;;23.94;42.01;101475.38;12248599;19;20330;-85
2022/09/02 15:37:15;;;;;;;;;;;26.10;38.50;;;24.36;42.36;101544.09;12248670;19;20230;-85
2022/09/02 15:41:19;;;;;;;;;;;26.00;38.30;;;24.35;41.98;101534.41;12250313;19;19978;-86
2022/09/02 15:45:21;;;;;;;;;;;26.00;38.50;;;24.31;42.01;101516.22;12246901;19;19983;-86
2022/09/02 15:49:23;;;;;;;;;;;26.00;38.60;;;24.35;42.51;101523.72;12248149;19;20616;-86
2022/09/02 15:53:25;;;;;;;;;;;26.00;38.50;;;24.43;42.14;101525.63;12246280;19;19936;-86
2022/09/02 15:57:26;;;;;;;;;;;26.00;38.20;;;24.18;42.25;101479.22;12245242;19;19935;-86
2022/09/02 16:01:30;;;;;;;;;;;26.00;38.20;;;24.54;41.58;101530.75;12246810;19;19911;-85
2022/09/02 16:05:31;;;;;;;;;;;26.00;38.70;;;24.59;41.82;101536.44;12248215;19;19911;-86
2022/09/02 16:09:33;;;;;;;;;;;26.10;39.20;;;24.61;41.62;101531.81;12249820;19;19906;-86
2022/09/02 16:13:35;;;;;;;;;;;26.30;38.10;;;24.59;41.63;101541.78;12250101;19;19915;-87
2022/09/02 16:17:37;;;;;;;;;;;26.10;38.20;;;24.50;41.66;101527.56;12247250;19;19921;-86
2022/09/02 16:21:39;;;;;;;;;;;26.10;38.00;;;24.28;41.70;101510.19;12245421;19;19922;-86
2022/09/02 16:25:41;;;;;;;;;;;26.10;38.30;;;24.31;41.73;101530.38;12246653;19;19919;-86
2022/09/02 16:29:42;;;;;;;;;;;26.00;37.70;;;24.17;41.44;101521.09;12247667;19;19925;-86
2022/09/02 16:33:52;;;;;;;;;;;25.90;37.90;;;24.10;41.54;101520.03;12246883;19;19919;-86
2022/09/02 16:37:56;;;;;;;;;;;25.90;38.00;;;23.98;41.57;101522.09;12245832;19;20285;-86
2022/09/02 16:42:02;;;;;;;;;;;25.80;38.20;;;23.93;41.63;101521.72;12246847;19;20296;-85
2022/09/02 16:46:08;;;;;;;;;;;25.70;38.10;;;23.71;41.77;101495.44;12243435;19;22179;-86
2022/09/02 16:50:11;;;;;;;;;;;25.50;38.00;;;23.72;41.80;101508.69;12247579;19;19945;-84
2022/09/02 16:54:14;;;;;;;;;;;25.50;38.10;;;23.66;41.92;101505.75;12247026;19;19918;-85
2022/09/02 16:58:15;;;;;;;;;;;25.40;38.00;;;23.66;41.67;101519.94;12243477;19;19933;-86
2022/09/02 17:02:17;;;;;;;;;;;25.30;38.30;;;23.32;41.26;101488.56;12245451;19;19911;-85
2022/09/02 17:06:19;;;;;;;;;;;25.20;38.30;;;23.39;41.64;101515.47;12243959;19;20353;-85
2022/09/02 17:10:20;;;;;;;;;;;25.20;38.40;;;23.27;41.86;101512.13;12245518;19;19922;-85
2022/09/02 17:14:22;;;;;;;;;;;25.10;38.00;;;23.17;41.59;101516.69;12244668;19;19919;-85
2022/09/02 17:18:24;;;;;;;;;;;25.10;38.20;;;23.12;41.91;101519.81;12241922;19;19943;-85
2022/09/02 17:22:25;;;;;;;;;;;24.90;38.30;;;23.02;41.98;101528.81;12244459;19;19923;-86
2022/09/02 17:26:29;;;;;;;;;;;24.70;38.10;;;22.88;41.83;101530.94;12243451;19;19915;-87
2022/09/02 17:30:31;;;;;;;;;;;24.70;38.00;;;22.64;41.59;101504.81;12243229;19;20205;-85
2022/09/02 17:34:32;;;;;;;;;;;24.60;38.20;;;22.73;41.54;101532.38;12257003;19;19919;-85
2022/09/02 17:38:34;;;;;;;;;;;24.60;38.40;;;22.47;41.54;101510.88;12252073;19;19927;-83
2022/09/02 17:42:35;;;;;;;;;;;24.40;38.30;;;22.47;42.00;101529.50;12255501;19;20269;-83
2022/09/02 17:46:37;;;;;;;;;;;24.30;38.40;;;22.28;41.69;101522.38;12251038;19;20333;-85
2022/09/02 17:50:41;;;;;;;;;;;24.10;38.40;;;22.04;41.89;101498.84;12252833;19;20325;-84
2022/09/02 17:54:44;;;;;;;;;;;24.00;38.30;;;22.06;41.80;101519.00;12253056;19;20564;-85
2022/09/02 17:59:09;;;;;;;;;;;24.00;38.40;;;22.13;42.06;101545.03;12245563;19;19922;-85
2022/09/02 18:03:24;;;;;;;;;;;23.80;38.70;;;22.07;42.17;101533.97;12252774;19;20336;-85
2022/09/02 18:07:37;;;;;;;;;;;24.00;38.50;;;21.97;42.00;101535.78;12254024;19;19953;-85
2022/09/02 18:11:39;;;;;;;;;;;23.70;38.40;;;21.84;41.81;101537.88;12256157;19;19915;-85
2022/09/02 18:15:43;;;;;;;;;;;23.60;38.40;;;21.73;42.10;101538.00;12253697;19;19935;-84
2022/09/02 18:19:56;;;;;;;;;;;23.50;38.40;;;21.64;41.83;101540.50;12257450;19;19915;-84
2022/09/02 18:24:09;;;;;;;;;;;23.40;38.50;;;21.52;42.21;101552.25;12258302;19;19915;-85
2022/09/02 18:28:29;;;;;;;;;;;23.30;38.50;;;21.36;42.36;101546.53;12255701;19;19922;-85
2022/09/02 18:33:04;;;;;;;;;;;23.20;38.40;;;21.26;42.37;101546.53;12258949;19;19926;-85